Time;durP1;ratioP1;P1;durP2;ratioP2;P2;SDS_P1;SDS_P2;PMS_P1;PMS_P2;Temp;Humidity;BMP_temperature;BMP_pressure;BME280_temperature;BME280_humidity;BME280_pressure;Samples;Min_cycle;Max_cycle;Signal;HPM_P1;HPM_P2
2022/04/06 05:39:35;;;;;;;16.30;9.32;;;;;;;7.29;82.58;98918.91;31204252;28;97350;-72
2022/04/06 05:54:36;;;;;;;7.68;5.47;;;;;;;7.71;81.58;98927.22;31199609;28;97686;-72
2022/04/06 06:09:37;;;;;;;5.53;4.68;;;;;;;8.02;81.35;98937.66;31197695;28;96831;-72
2022/04/06 06:24:38;;;;;;;6.20;3.88;;;;;;;8.32;80.19;98945.56;31197790;28;96676;-75
2022/04/06 06:39:38;;;;;;;7.10;4.35;;;;;;;8.63;79.43;98939.22;31241954;27;96697;-73
2022/04/06 06:54:39;;;;;;;5.88;3.40;;;;;;;8.87;78.88;98953.13;31019052;27;97581;-73
2022/04/06 07:09:39;;;;;;;5.65;3.83;;;;;;;9.23;77.59;98958.38;31070967;28;96750;-71
2022/04/06 07:24:40;;;;;;;7.38;4.07;;;;;;;9.32;76.98;98957.22;31102381;28;103533;-75
2022/04/06 07:39:40;;;;;;;6.88;4.25;;;;;;;9.81;76.18;98958.16;31107829;28;97051;-71
2022/04/06 07:54:40;;;;;;;6.60;4.75;;;;;;;10.03;75.31;98957.25;31103073;28;105387;-70
2022/04/06 08:09:41;;;;;;;6.30;4.22;;;;;;;10.17;74.78;98964.28;31101789;28;101305;-70
2022/04/06 08:24:41;;;;;;;6.97;3.97;;;;;;;10.52;74.19;98960.78;31103304;28;110040;-71
2022/04/06 08:39:41;;;;;;;5.25;2.75;;;;;;;10.72;72.10;98974.97;31100569;28;96617;-69
2022/04/06 08:54:43;;;;;;;3.17;2.15;;;;;;;10.92;70.62;98979.50;31126018;28;97552;-71
2022/04/06 09:09:48;;;;;;;4.57;3.23;;;;;;;11.49;69.49;98977.28;31126187;27;96680;-71
2022/04/06 09:24:57;;;;;;;4.40;3.13;;;;;;;11.90;66.92;98978.06;31097803;28;96788;-71
2022/04/06 09:40:08;;;;;;;6.67;3.53;;;;;;;11.84;65.65;98961.06;31087161;28;97134;-70
2022/04/06 09:55:11;;;;;;;5.23;3.13;;;;;;;12.17;63.57;98960.16;31089545;28;97036;-72
2022/04/06 10:10:12;;;;;;;6.43;4.00;;;;;;;11.87;64.38;98978.50;31096234;28;96942;-72
2022/04/06 10:25:39;;;;;;;3.53;2.10;;;;;;;11.67;64.00;98966.00;31112876;28;97747;-72
2022/04/06 10:40:42;;;;;;;5.40;4.00;;;;;;;12.88;62.80;98957.56;31114048;28;96684;-70
2022/04/06 10:56:16;;;;;;;4.07;2.60;;;;;;;12.69;61.84;98944.09;31111403;28;96709;-70
2022/04/06 11:11:45;;;;;;;4.53;2.57;;;;;;;16.65;53.40;98934.16;31103030;28;97012;-70
2022/04/06 11:26:46;;;;;;;6.40;3.93;;;;;;;13.97;55.75;98925.97;30999328;28;98403;-72
2022/04/06 11:41:47;;;;;;;4.30;2.97;;;;;;;13.37;55.38;98926.56;31002587;28;97503;-73
2022/04/06 11:56:51;;;;;;;5.03;3.97;;;;;;;13.30;55.55;98907.88;31090861;28;96999;-71
2022/04/06 12:11:52;;;;;;;7.63;3.20;;;;;;;16.87;51.96;98889.41;31094494;28;97229;-72
2022/04/06 12:26:54;;;;;;;6.63;2.67;;;;;;;14.64;48.39;98878.75;31094042;28;97189;-74
2022/04/06 12:42:00;;;;;;;4.63;3.03;;;;;;;14.93;48.83;98849.47;31089831;28;97023;-71
2022/04/06 12:57:03;;;;;;;4.20;3.07;;;;;;;15.62;47.27;98838.91;31098551;28;97720;-72
2022/04/06 13:12:04;;;;;;;8.07;5.20;;;;;;;15.44;46.43;98829.16;31099878;28;97031;-71
2022/04/06 13:27:05;;;;;;;4.85;2.75;;;;;;;15.13;46.09;98811.56;31095172;28;98448;-71
2022/04/06 13:42:05;;;;;;;4.17;1.60;;;;;;;15.12;44.28;98777.75;31093665;28;97029;-74
2022/04/06 13:57:06;;;;;;;3.38;1.77;;;;;;;15.82;43.11;98768.75;31107749;28;97058;-72
2022/04/06 14:12:07;;;;;;;1.45;1.00;;;;;;;15.62;42.56;98771.00;31115485;28;98255;-76
2022/04/06 14:27:08;;;;;;;3.60;1.63;;;;;;;16.72;40.42;98730.50;31112626;28;96856;-75
2022/04/06 14:42:09;;;;;;;4.43;2.70;;;;;;;15.76;40.07;98712.47;31150210;28;97077;-75
2022/04/06 14:57:09;;;;;;;6.38;2.40;;;;;;;15.83;40.74;98699.78;31174221;27;97072;-73
2022/04/06 15:12:09;;;;;;;8.23;3.95;;;;;;;15.55;41.81;98693.31;31159939;28;101563;-74
2022/04/06 15:27:10;;;;;;;4.60;2.08;;;;;;;15.20;42.48;98684.34;31156607;28;97441;-72
2022/04/06 15:42:10;;;;;;;5.22;2.25;;;;;;;15.02;42.14;98697.88;31157758;28;96992;-76
2022/04/06 15:57:12;;;;;;;3.05;1.58;;;;;;;14.85;42.54;98671.78;31167523;28;96597;-73
2022/04/06 16:12:12;;;;;;;3.00;1.77;;;;;;;14.38;43.86;98667.25;31190085;27;97006;-71
2022/04/06 16:27:13;;;;;;;5.07;2.58;;;;;;;14.03;44.78;98653.81;31223237;27;96753;-76
2022/04/06 16:42:13;;;;;;;4.90;2.65;;;;;;;13.53;46.01;98645.09;31100493;28;96882;-72
2022/04/06 16:57:19;;;;;;;5.82;2.58;;;;;;;12.96;47.38;98640.03;31177820;28;97880;-69
2022/04/06 17:12:20;;;;;;;4.90;2.73;;;;;;;12.47;48.37;98629.25;31106079;27;96654;-73
2022/04/06 17:27:20;;;;;;;8.73;3.03;;;;;;;11.96;50.06;98624.97;31221815;27;96832;-70
2022/04/06 17:42:21;;;;;;;7.35;3.50;;;;;;;11.37;50.97;98621.66;31103607;28;111101;-70
2022/04/06 17:57:21;;;;;;;15.07;5.32;;;;;;;10.89;53.22;98625.56;31094288;28;100401;-73
2022/04/06 18:27:41;;;;;;;8.73;5.77;;;;;;;10.50;55.83;98634.28;31093704;28;97165;-71
2022/04/06 18:42:41;;;;;;;10.23;6.00;;;;;;;10.27;56.55;98634.69;31107229;28;97545;-73
2022/04/06 18:57:42;;;;;;;15.70;8.00;;;;;;;9.93;57.60;98636.53;31110260;28;97005;-71
2022/04/06 19:12:43;;;;;;;17.77;8.52;;;;;;;9.80;58.36;98640.03;31110784;28;96924;-71
2022/04/06 19:27:44;;;;;;;12.40;8.03;;;;;;;9.75;58.66;98645.13;31109937;28;96915;-72
2022/04/06 19:42:44;;;;;;;13.27;7.63;;;;;;;9.69;58.88;98642.47;31107471;28;96679;-73
2022/04/06 19:57:45;;;;;;;22.85;11.73;;;;;;;9.36;59.46;98630.72;31106097;28;98509;-69
2022/04/06 20:12:47;;;;;;;26.38;14.65;;;;;;;9.06;60.66;98612.47;31106025;28;96738;-70
2022/04/06 20:27:48;;;;;;;19.30;11.50;;;;;;;8.67;61.78;98591.88;31104941;28;96645;-70
2022/04/06 20:42:48;;;;;;;20.00;11.77;;;;;;;8.20;62.57;98575.66;31103668;28;97405;-69
2022/04/06 20:57:48;;;;;;;18.98;11.45;;;;;;;7.96;63.74;98554.69;31100596;28;96746;-69
2022/04/06 21:12:53;;;;;;;20.90;11.52;;;;;;;7.89;64.36;98542.44;31100827;28;96563;-69
